createdAt,value
2022-09-12T00:03:21.977Z,366.95
2022-09-12T00:08:29.152Z,366.78
2022-09-12T00:13:40.847Z,367.42
2022-09-12T00:18:43.559Z,367.96
2022-09-12T00:23:50.744Z,367.82
2022-09-12T00:28:58.030Z,368.22
2022-09-12T00:34:05.277Z,368.50
2022-09-12T00:39:12.471Z,368.50
2022-09-12T00:44:19.781Z,369.08
2022-09-12T00:49:26.860Z,369.70
2022-09-12T00:54:34.068Z,370.24
2022-09-12T00:59:41.298Z,370.61
2022-09-12T01:04:48.515Z,370.29
2022-09-12T01:09:55.695Z,371.19
2022-09-12T01:15:02.910Z,371.81
2022-09-12T01:20:10.090Z,372.58
2022-09-12T01:25:17.252Z,372.45
2022-09-12T01:30:24.463Z,372.84
2022-09-12T01:35:31.685Z,373.50
2022-09-12T01:40:40.867Z,373.29
2022-09-12T01:45:48.208Z,373.52
2022-09-12T01:50:55.584Z,374.13
2022-09-12T01:56:02.809Z,373.83
2022-09-12T02:01:10.090Z,374.03
2022-09-12T02:06:17.146Z,374.16
2022-09-12T02:11:24.389Z,373.97
2022-09-12T02:16:31.648Z,374.07
2022-09-12T02:21:38.833Z,374.43
2022-09-12T02:26:46.069Z,375.06
2022-09-12T02:31:53.301Z,375.32
2022-09-12T02:37:00.508Z,375.52
2022-09-12T02:42:07.760Z,375.34
2022-09-12T02:47:15.016Z,375.69
2022-09-12T02:52:22.237Z,375.95
2022-09-12T02:57:29.439Z,375.78
2022-09-12T03:02:36.635Z,376.17
2022-09-12T03:07:43.774Z,376.51
2022-09-12T03:12:50.946Z,376.90
2022-09-12T03:17:58.230Z,377.29
2022-09-12T03:23:05.461Z,377.41
2022-09-12T03:28:12.665Z,377.61
2022-09-12T03:33:19.909Z,378.15
2022-09-12T03:38:27.039Z,378.17
2022-09-12T03:43:34.290Z,377.56
2022-09-12T03:48:41.669Z,377.87
2022-09-12T03:53:48.710Z,377.69
2022-09-12T03:58:55.884Z,377.31
2022-09-12T04:04:03.072Z,377.38
2022-09-12T04:09:10.327Z,377.61
2022-09-12T04:14:17.563Z,377.41
2022-09-12T04:19:24.836Z,377.79
2022-09-12T04:24:31.986Z,377.61
2022-09-12T04:29:39.191Z,377.19
2022-09-12T04:34:46.428Z,376.55
2022-09-12T04:39:53.716Z,376.61
2022-09-12T04:45:00.846Z,375.66
2022-09-12T04:50:08.165Z,375.77
2022-09-12T04:55:15.379Z,375.74
2022-09-12T05:00:22.562Z,375.45
2022-09-12T05:05:29.799Z,375.36
2022-09-12T05:10:37.037Z,374.88
2022-09-12T05:15:44.283Z,374.41
2022-09-12T05:20:51.495Z,374.35
2022-09-12T05:25:58.692Z,374.17
2022-09-12T05:31:05.919Z,374.20
2022-09-12T05:36:13.116Z,373.44
2022-09-12T05:41:24.674Z,373.49
2022-09-12T05:46:27.526Z,373.19
2022-09-12T05:51:34.754Z,373.61
2022-09-12T05:56:41.915Z,373.10
2022-09-12T06:01:49.319Z,373.33
2022-09-12T06:06:56.324Z,373.58
2022-09-12T06:12:03.518Z,373.35
2022-09-12T06:17:10.723Z,373.56
2022-09-12T06:22:17.925Z,373.79
2022-09-12T06:27:25.143Z,373.48
2022-09-12T06:32:32.342Z,373.49
2022-09-12T06:37:39.589Z,373.81
2022-09-12T06:42:46.725Z,373.78
2022-09-12T06:47:53.908Z,374.13
2022-09-12T06:53:01.186Z,373.77
2022-09-12T06:58:08.677Z,373.62
2022-09-12T07:03:15.879Z,373.28
2022-09-12T07:08:23.103Z,373.28
2022-09-12T07:13:30.288Z,373.49
2022-09-12T07:18:37.461Z,373.76
2022-09-12T07:23:44.825Z,374.09
2022-09-12T07:28:51.914Z,374.05
2022-09-12T07:33:59.124Z,374.52
2022-09-12T07:39:06.347Z,374.95
2022-09-12T07:44:13.527Z,374.77
2022-09-12T07:49:20.723Z,374.45
2022-09-12T07:54:27.995Z,374.80
2022-09-12T07:59:52.030Z,374.78
2022-09-12T08:04:42.340Z,375.31
2022-09-12T08:09:49.573Z,375.02
2022-09-12T08:14:56.715Z,375.06
2022-09-12T08:20:03.955Z,375.36
2022-09-12T08:25:11.160Z,375.47
2022-09-12T08:30:18.368Z,376.04
2022-09-12T08:35:25.596Z,376.03
2022-09-12T08:40:32.787Z,376.70
2022-09-12T08:45:40.071Z,376.69
2022-09-12T08:50:49.853Z,376.15
2022-09-12T08:55:54.501Z,376.41
2022-09-12T09:01:01.615Z,376.85
2022-09-12T09:06:08.826Z,376.66
2022-09-12T09:11:16.009Z,376.65
2022-09-12T09:16:23.142Z,377.13
2022-09-12T09:21:30.324Z,377.78
2022-09-12T09:26:37.471Z,378.00
2022-09-12T09:31:44.725Z,377.81
2022-09-12T09:36:51.906Z,377.72
2022-09-12T09:41:59.141Z,377.80
2022-09-12T09:47:06.309Z,377.80
2022-09-12T09:52:13.507Z,378.30
2022-09-12T09:57:20.768Z,378.62
2022-09-12T10:02:28.029Z,378.73
2022-09-12T10:07:35.170Z,378.85
2022-09-12T10:12:42.424Z,378.73
2022-09-12T10:17:49.562Z,379.58
2022-09-12T10:22:56.714Z,379.76
2022-09-12T10:28:03.956Z,380.32
2022-09-12T10:33:11.181Z,380.46
2022-09-12T10:38:18.424Z,380.43
2022-09-12T10:43:25.606Z,380.59
2022-09-12T10:48:32.787Z,380.56
2022-09-12T10:53:39.973Z,381.02
2022-09-12T10:58:47.177Z,380.93
2022-09-12T11:03:54.315Z,381.42
2022-09-12T11:09:01.495Z,381.96
2022-09-12T11:14:08.666Z,382.14
2022-09-12T11:19:15.803Z,382.22
2022-09-12T11:24:23.045Z,382.47
2022-09-12T11:29:30.279Z,382.71
2022-09-12T11:34:37.419Z,382.81
2022-09-12T11:39:44.748Z,382.80
2022-09-12T11:44:52.055Z,383.61
2022-09-12T11:49:59.274Z,383.91
2022-09-12T11:55:06.495Z,384.14
2022-09-12T12:00:13.686Z,384.04
2022-09-12T12:05:20.881Z,384.11
2022-09-12T12:10:28.052Z,383.92
2022-09-12T12:15:35.321Z,383.60
2022-09-12T12:20:42.478Z,384.23
2022-09-12T12:25:49.679Z,385.11
2022-09-12T12:30:56.942Z,385.31
2022-09-12T12:36:04.083Z,385.32
2022-09-12T12:41:11.287Z,385.98
2022-09-12T12:46:18.505Z,386.17
2022-09-12T12:51:25.591Z,386.21
2022-09-12T12:56:32.797Z,386.53
2022-09-12T13:01:40.149Z,386.82
2022-09-12T13:06:47.209Z,388.19
2022-09-12T13:11:54.363Z,388.33
2022-09-12T13:17:01.637Z,389.23
2022-09-12T13:22:08.850Z,389.64
2022-09-12T13:27:16.022Z,390.45
2022-09-12T13:32:23.253Z,391.40
2022-09-12T13:37:30.435Z,391.42
2022-09-12T13:42:37.598Z,391.97
2022-09-12T13:47:44.877Z,392.15
2022-09-12T13:52:52.150Z,393.08
2022-09-12T13:57:59.352Z,392.89
2022-09-12T14:03:06.564Z,393.29
2022-09-12T14:08:13.765Z,393.42
2022-09-12T14:13:20.973Z,393.98
2022-09-12T14:18:28.194Z,394.01
2022-09-12T14:23:35.421Z,394.58
2022-09-12T14:28:42.664Z,395.02
2022-09-12T14:33:49.846Z,395.24
2022-09-12T14:38:57.020Z,395.00
2022-09-12T14:44:04.207Z,395.50
2022-09-12T14:49:11.495Z,395.21
2022-09-12T14:54:18.638Z,395.10
2022-09-12T14:59:25.815Z,395.78
2022-09-12T15:04:33.096Z,395.34
2022-09-12T15:09:45.571Z,395.68
2022-09-12T15:14:47.427Z,395.72
2022-09-12T15:19:54.874Z,395.75
2022-09-12T15:25:02.115Z,395.85
2022-09-12T15:30:09.315Z,395.86
2022-09-12T15:35:16.558Z,395.69
2022-09-12T15:40:23.687Z,397.24
2022-09-12T15:45:30.869Z,397.18
2022-09-12T15:50:38.113Z,397.59
2022-09-12T15:55:45.270Z,397.71
2022-09-12T16:00:52.503Z,397.21
2022-09-12T16:05:59.883Z,397.34
2022-09-12T16:11:06.878Z,397.12
2022-09-12T16:16:14.180Z,396.96
2022-09-12T16:21:21.401Z,397.90
2022-09-12T16:26:28.481Z,398.06
2022-09-12T16:31:35.719Z,398.03
2022-09-12T16:36:43.044Z,398.45
2022-09-12T16:41:50.129Z,398.67
2022-09-12T16:46:57.392Z,398.83
2022-09-12T16:52:04.681Z,398.66
2022-09-12T16:57:11.936Z,398.35
2022-09-12T17:02:19.185Z,398.34
2022-09-12T17:07:26.364Z,397.86
2022-09-12T17:12:33.540Z,397.45
2022-09-12T17:17:40.750Z,396.95
2022-09-12T17:22:48.021Z,396.73
2022-09-12T17:27:55.229Z,397.08
2022-09-12T17:33:02.481Z,397.11
2022-09-12T17:38:12.288Z,396.39
2022-09-12T17:43:17.201Z,395.77
2022-09-12T17:48:24.557Z,395.42
2022-09-12T17:53:31.840Z,396.00
2022-09-12T17:58:39.307Z,395.20
2022-09-12T18:03:46.923Z,395.26
2022-09-12T18:08:54.302Z,394.76
2022-09-12T18:14:01.657Z,394.25
2022-09-12T18:19:08.904Z,394.37
2022-09-12T18:24:16.378Z,393.75
2022-09-12T18:29:24.079Z,393.69
2022-09-12T18:34:31.790Z,392.77
2022-09-12T18:39:39.489Z,392.96
2022-09-12T18:44:46.912Z,392.85
2022-09-12T18:49:54.529Z,392.76
2022-09-12T18:55:02.175Z,392.67
2022-09-12T19:00:12.427Z,392.79
2022-09-12T19:05:17.385Z,393.03
2022-09-12T19:10:24.907Z,393.21
2022-09-12T19:15:32.694Z,393.49
2022-09-12T19:20:40.116Z,393.13
2022-09-12T19:25:47.833Z,393.53
2022-09-12T19:30:55.355Z,393.97
2022-09-12T19:36:02.618Z,393.67
2022-09-12T19:41:13.455Z,393.85
2022-09-12T19:46:17.252Z,394.27
2022-09-12T19:51:25.044Z,394.38
2022-09-12T19:56:32.902Z,394.54
2022-09-12T20:01:40.505Z,394.30
2022-09-12T20:06:47.680Z,394.16
2022-09-12T20:11:54.971Z,394.16
2022-09-12T20:17:02.133Z,394.42
2022-09-12T20:22:09.379Z,393.97
2022-09-12T20:27:16.714Z,394.41
2022-09-12T20:32:23.767Z,394.67
2022-09-12T20:37:31.009Z,394.43
2022-09-12T20:42:38.236Z,394.20
2022-09-12T20:47:45.459Z,394.93
2022-09-12T20:52:52.668Z,394.89
2022-09-12T20:57:59.905Z,396.02
2022-09-12T21:03:07.159Z,395.64
2022-09-12T21:08:14.376Z,395.99
2022-09-12T21:13:21.611Z,395.44
2022-09-12T21:18:28.804Z,395.49
2022-09-12T21:23:36.565Z,395.51
2022-09-12T21:28:44.147Z,395.15
2022-09-12T21:33:51.249Z,395.44
2022-09-12T21:38:58.683Z,395.41
2022-09-12T21:44:05.901Z,395.58
2022-09-12T21:49:13.076Z,395.18
2022-09-12T21:54:20.300Z,395.62
2022-09-12T21:59:27.682Z,395.85
2022-09-12T22:04:34.795Z,396.23
2022-09-12T22:09:42.067Z,397.24
2022-09-12T22:14:49.378Z,397.26
2022-09-12T22:19:56.462Z,396.30
2022-09-12T22:25:03.692Z,397.56
2022-09-12T22:30:10.914Z,398.02
2022-09-12T22:35:18.067Z,397.43
2022-09-12T22:40:25.192Z,397.79
2022-09-12T22:45:32.439Z,398.16
2022-09-12T22:50:39.637Z,398.16
2022-09-12T22:55:46.836Z,399.13
2022-09-12T23:00:54.143Z,399.23
2022-09-12T23:06:01.237Z,399.46
2022-09-12T23:11:08.456Z,400.09
2022-09-12T23:16:15.724Z,399.46
2022-09-12T23:21:22.834Z,400.33
2022-09-12T23:26:30.048Z,401.08
2022-09-12T23:31:37.475Z,400.23
2022-09-12T23:36:44.574Z,400.99
2022-09-12T23:41:51.770Z,401.62
2022-09-12T23:46:59.734Z,401.73
2022-09-12T23:52:06.983Z,401.44
2022-09-12T23:57:14.236Z,401.97
